Time;durP1;ratioP1;P1;durP2;ratioP2;P2;SDS_P1;SDS_P2;PMS_P1;PMS_P2;Temp;Humidity;BMP_temperature;BMP_pressure;BME280_temperature;BME280_humidity;BME280_pressure;Samples;Min_cycle;Max_cycle;Signal;HPM_P1;HPM_P2
2023/12/16 00:00:18;;;;;;;9.85;5.47;;;;;;;;;;5018926;28;20052;-70
2023/12/16 00:02:44;;;;;;;7.47;5.55;;;;;;;;;;5020857;28;20045;-68
2023/12/16 00:05:09;;;;;;;9.27;5.75;;;;;;;;;;5022206;28;20103;-70
2023/12/16 00:07:35;;;;;;;8.98;5.40;;;;;;;;;;5017610;28;20052;-69
2023/12/16 00:10:00;;;;;;;10.63;5.85;;;;;;;;;;5018167;28;20046;-69
2023/12/16 00:12:26;;;;;;;11.75;6.25;;;;;;;;;;5017962;28;20045;-69
2023/12/16 00:14:51;;;;;;;14.50;6.30;;;;;;;;;;5019528;28;20516;-69
2023/12/16 00:17:17;;;;;;;8.73;6.13;;;;;;;;;;5017568;28;20033;-69
2023/12/16 00:19:42;;;;;;;10.90;6.03;;;;;;;;;;5017707;28;20037;-69
2023/12/16 00:22:07;;;;;;;8.82;5.68;;;;;;;;;;5020211;28;20507;-68
2023/12/16 00:24:33;;;;;;;12.40;5.72;;;;;;;;;;5022261;28;20412;-69
2023/12/16 00:26:58;;;;;;;8.02;5.90;;;;;;;;;;5020914;28;20160;-69
2023/12/16 00:29:24;;;;;;;11.60;6.78;;;;;;;;;;5022312;28;20069;-73
2023/12/16 00:31:49;;;;;;;11.70;6.30;;;;;;;;;;5039633;28;20138;-67
2023/12/16 00:34:15;;;;;;;10.27;5.90;;;;;;;;;;5039739;28;20068;-67
2023/12/16 00:36:41;;;;;;;12.00;6.90;;;;;;;;;;5040495;28;20110;-67
2023/12/16 00:39:07;;;;;;;10.52;6.22;;;;;;;;;;5040633;28;20087;-67
2023/12/16 00:41:33;;;;;;;9.15;5.43;;;;;;;;;;5039600;28;20045;-67
2023/12/16 00:43:58;;;;;;;12.20;6.32;;;;;;;;;;5039902;28;20052;-67
2023/12/16 00:46:24;;;;;;;11.68;6.65;;;;;;;;;;5039240;28;20094;-67
2023/12/16 00:48:49;;;;;;;11.10;6.03;;;;;;;;;;5039636;28;20052;-68
2023/12/16 00:51:14;;;;;;;10.98;5.95;;;;;;;;;;5039923;28;20095;-68
2023/12/16 00:53:40;;;;;;;9.13;5.85;;;;;;;;;;5037372;28;20040;-68
2023/12/16 00:56:05;;;;;;;9.23;5.43;;;;;;;;;;5039217;28;20142;-67
2023/12/16 00:58:31;;;;;;;15.50;7.78;;;;;;;;;;5037414;28;20056;-68
2023/12/16 01:00:56;;;;;;;15.40;6.05;;;;;;;;;;5036574;28;20053;-67
2023/12/16 01:03:22;;;;;;;9.50;5.90;;;;;;;;;;5037073;28;20041;-68
2023/12/16 01:05:47;;;;;;;12.93;5.88;;;;;;;;;;5037427;28;20053;-68
2023/12/16 01:08:13;;;;;;;9.43;5.82;;;;;;;;;;5037736;28;20492;-67
2023/12/16 01:10:38;;;;;;;9.88;5.90;;;;;;;;;;5038238;28;20515;-67
2023/12/16 01:13:04;;;;;;;10.25;6.03;;;;;;;;;;5037619;28;20052;-67
2023/12/16 01:15:30;;;;;;;9.30;5.22;;;;;;;;;;5036992;28;20626;-66
2023/12/16 01:17:55;;;;;;;8.75;5.60;;;;;;;;;;5037698;28;20053;-69
2023/12/16 01:20:20;;;;;;;10.23;6.15;;;;;;;;;;5039704;28;20052;-67
2023/12/16 01:22:46;;;;;;;9.82;5.97;;;;;;;;;;5038966;28;20045;-66
2023/12/16 01:25:11;;;;;;;7.70;5.40;;;;;;;;;;5039526;28;20040;-66
2023/12/16 01:27:37;;;;;;;9.55;5.18;;;;;;;;;;5037994;28;20044;-68
2023/12/16 01:30:03;;;;;;;7.85;5.15;;;;;;;;;;5039218;28;20840;-66
2023/12/16 01:32:29;;;;;;;7.78;5.07;;;;;;;;;;5038829;28;20045;-67
2023/12/16 01:34:55;;;;;;;8.13;5.45;;;;;;;;;;5038770;28;20055;-67
2023/12/16 01:37:20;;;;;;;8.38;5.60;;;;;;;;;;5038686;28;20044;-69
2023/12/16 01:39:45;;;;;;;6.25;4.47;;;;;;;;;;5038300;28;20068;-66
2023/12/16 01:42:11;;;;;;;7.68;4.97;;;;;;;;;;5037721;28;20086;-67
2023/12/16 01:44:36;;;;;;;8.77;4.68;;;;;;;;;;5038903;28;20045;-68
2023/12/16 01:47:02;;;;;;;6.70;4.82;;;;;;;;;;5037947;28;20040;-67
2023/12/16 01:49:28;;;;;;;8.13;4.85;;;;;;;;;;5037741;28;20053;-66
2023/12/16 01:51:53;;;;;;;6.68;4.72;;;;;;;;;;5038475;28;20049;-68
2023/12/16 01:54:20;;;;;;;6.68;4.60;;;;;;;;;;5038663;28;20052;-69
2023/12/16 01:56:52;;;;;;;7.45;4.72;;;;;;;;;;5038959;28;20037;-67
2023/12/16 01:59:17;;;;;;;3.88;3.28;;;;;;;;;;5038291;28;20091;-67
2023/12/16 02:01:42;;;;;;;5.70;3.83;;;;;;;;;;5038015;28;20808;-69
2023/12/16 02:04:08;;;;;;;6.65;3.42;;;;;;;;;;5037916;28;20518;-68
2023/12/16 02:06:34;;;;;;;6.25;4.18;;;;;;;;;;5038804;28;20045;-68
2023/12/16 02:08:59;;;;;;;7.95;4.28;;;;;;;;;;5036389;28;20037;-70
2023/12/16 02:11:24;;;;;;;7.00;4.07;;;;;;;;;;5036398;28;20563;-67
2023/12/16 02:13:51;;;;;;;6.30;4.22;;;;;;;;;;5036158;28;20045;-67
2023/12/16 02:16:16;;;;;;;7.75;4.43;;;;;;;;;;5036103;28;20069;-67
2023/12/16 02:18:41;;;;;;;7.18;4.55;;;;;;;;;;5037268;28;20461;-69
2023/12/16 02:21:07;;;;;;;6.40;4.38;;;;;;;;;;5036507;28;20044;-67
2023/12/16 02:23:32;;;;;;;7.40;4.40;;;;;;;;;;5037392;28;20037;-67
2023/12/16 02:25:58;;;;;;;6.50;4.85;;;;;;;;;;5037598;28;20541;-66
2023/12/16 02:28:23;;;;;;;5.70;4.10;;;;;;;;;;5038072;28;20049;-67
2023/12/16 02:30:49;;;;;;;7.30;4.40;;;;;;;;;;5036913;28;20049;-69
2023/12/16 02:33:17;;;;;;;6.53;4.57;;;;;;;;;;5038266;28;20053;-67
2023/12/16 02:35:42;;;;;;;8.25;3.85;;;;;;;;;;5037359;28;20056;-67
2023/12/16 02:38:08;;;;;;;7.00;4.05;;;;;;;;;;5037516;28;20053;-69
2023/12/16 02:40:38;;;;;;;6.72;4.35;;;;;;;;;;5038069;28;20126;-67
2023/12/16 02:43:04;;;;;;;5.03;3.65;;;;;;;;;;5035563;28;20045;-70
2023/12/16 02:45:29;;;;;;;5.20;3.85;;;;;;;;;;5028677;28;20548;-67
2023/12/16 02:47:54;;;;;;;5.38;3.70;;;;;;;;;;5037294;28;20049;-69
2023/12/16 02:50:20;;;;;;;9.25;4.22;;;;;;;;;;5038128;28;20049;-67
2023/12/16 02:52:45;;;;;;;7.55;4.60;;;;;;;;;;5037113;28;20095;-70
2023/12/16 02:55:11;;;;;;;7.22;4.57;;;;;;;;;;5037631;28;20041;-67
2023/12/16 02:57:36;;;;;;;6.07;4.38;;;;;;;;;;5037339;28;20139;-67
2023/12/16 03:00:02;;;;;;;9.27;4.45;;;;;;;;;;5037370;28;20044;-68
2023/12/16 03:02:28;;;;;;;7.80;3.92;;;;;;;;;;5037528;28;20134;-69
2023/12/16 03:04:53;;;;;;;12.38;5.07;;;;;;;;;;5036559;28;20040;-69
2023/12/16 03:07:19;;;;;;;6.13;4.07;;;;;;;;;;5036289;28;20041;-68
2023/12/16 03:09:44;;;;;;;7.32;4.10;;;;;;;;;;5037568;28;20041;-68
2023/12/16 03:12:09;;;;;;;6.10;4.28;;;;;;;;;;5037172;28;20033;-67
2023/12/16 03:14:37;;;;;;;7.07;4.50;;;;;;;;;;5036512;28;20048;-68
2023/12/16 03:17:03;;;;;;;9.52;4.97;;;;;;;;;;5037811;28;20561;-67
2023/12/16 03:19:30;;;;;;;7.63;5.03;;;;;;;;;;5037073;28;20036;-69
2023/12/16 03:21:56;;;;;;;7.22;4.78;;;;;;;;;;5035885;28;20486;-69
2023/12/16 03:24:21;;;;;;;6.18;4.45;;;;;;;;;;5037407;28;20662;-67
2023/12/16 03:26:47;;;;;;;6.63;4.35;;;;;;;;;;5036769;28;20107;-69
2023/12/16 03:29:12;;;;;;;4.68;4.18;;;;;;;;;;5037435;28;20037;-66
2023/12/16 03:31:38;;;;;;;9.57;5.05;;;;;;;;;;5037117;28;20570;-66
2023/12/16 03:34:03;;;;;;;9.65;4.95;;;;;;;;;;5036691;28;20052;-70
2023/12/16 03:36:28;;;;;;;7.22;4.45;;;;;;;;;;5037086;28;20049;-67
2023/12/16 03:38:54;;;;;;;8.52;5.40;;;;;;;;;;5035985;28;20118;-68
2023/12/16 03:41:19;;;;;;;9.30;5.60;;;;;;;;;;5037538;28;20068;-68
2023/12/16 03:43:45;;;;;;;7.75;5.35;;;;;;;;;;5036364;28;20124;-67
2023/12/16 03:46:10;;;;;;;10.23;5.45;;;;;;;;;;5036626;28;20033;-67
2023/12/16 03:48:35;;;;;;;8.18;5.63;;;;;;;;;;5036070;28;20139;-67
2023/12/16 03:51:01;;;;;;;8.80;5.30;;;;;;;;;;5036963;28;20056;-67
2023/12/16 03:53:26;;;;;;;10.23;5.50;;;;;;;;;;5034616;28;20151;-67
2023/12/16 03:55:53;;;;;;;12.35;5.70;;;;;;;;;;5037572;28;20052;-68
2023/12/16 03:58:18;;;;;;;8.70;5.50;;;;;;;;;;5038808;28;20045;-68
2023/12/16 04:00:43;;;;;;;7.25;5.07;;;;;;;;;;5040841;28;21043;-68
2023/12/16 04:03:09;;;;;;;10.65;5.13;;;;;;;;;;5038939;28;20067;-68
2023/12/16 04:05:35;;;;;;;8.43;5.38;;;;;;;;;;5039909;28;20068;-69
2023/12/16 04:08:01;;;;;;;8.25;5.10;;;;;;;;;;5040583;28;20075;-68
2023/12/16 04:10:28;;;;;;;7.88;5.03;;;;;;;;;;5036627;28;20998;-68
2023/12/16 04:12:53;;;;;;;8.05;5.40;;;;;;;;;;5038646;28;20131;-69
2023/12/16 04:15:19;;;;;;;8.50;5.57;;;;;;;;;;5039631;28;21008;-68
2023/12/16 04:17:44;;;;;;;10.10;4.72;;;;;;;;;;5040515;28;20080;-68
2023/12/16 04:20:10;;;;;;;7.55;5.03;;;;;;;;;;5039687;28;20496;-68
2023/12/16 04:22:37;;;;;;;8.15;4.90;;;;;;;;;;5040583;28;21290;-69
2023/12/16 04:25:09;;;;;;;10.40;5.82;;;;;;;;;;5040051;28;20049;-67
2023/12/16 04:27:34;;;;;;;7.97;5.18;;;;;;;;;;5040114;28;20396;-68
2023/12/16 04:30:00;;;;;;;10.85;5.55;;;;;;;;;;5039850;28;20594;-69
2023/12/16 04:32:25;;;;;;;9.18;5.00;;;;;;;;;;5037438;28;20033;-68
2023/12/16 04:34:51;;;;;;;8.63;4.88;;;;;;;;;;5039643;28;20036;-68
2023/12/16 04:37:16;;;;;;;11.00;5.45;;;;;;;;;;5039983;28;20051;-69
2023/12/16 04:39:41;;;;;;;8.90;4.60;;;;;;;;;;5039778;28;20044;-67
2023/12/16 04:42:09;;;;;;;8.65;4.95;;;;;;;;;;5039588;28;20522;-69
2023/12/16 04:44:36;;;;;;;7.18;4.47;;;;;;;;;;5040934;28;20079;-67
2023/12/16 04:47:02;;;;;;;9.98;5.20;;;;;;;;;;5039661;28;20048;-67
2023/12/16 04:49:28;;;;;;;7.65;4.65;;;;;;;;;;5040157;28;20036;-68
2023/12/16 04:51:53;;;;;;;6.22;4.38;;;;;;;;;;5039985;28;20061;-67
2023/12/16 04:54:18;;;;;;;7.63;4.70;;;;;;;;;;5038858;28;20056;-67
2023/12/16 04:56:44;;;;;;;8.40;4.63;;;;;;;;;;5039986;28;20037;-67
2023/12/16 04:59:09;;;;;;;7.50;4.55;;;;;;;;;;5039446;28;20056;-67
2023/12/16 05:01:34;;;;;;;8.23;4.57;;;;;;;;;;5038980;28;20499;-67
2023/12/16 05:04:00;;;;;;;7.55;4.47;;;;;;;;;;5037953;28;20059;-68
2023/12/16 05:06:25;;;;;;;8.32;5.00;;;;;;;;;;5038566;28;20495;-67
2023/12/16 05:08:50;;;;;;;9.32;4.65;;;;;;;;;;5038917;28;20470;-66
2023/12/16 05:11:16;;;;;;;7.43;4.38;;;;;;;;;;5036856;28;20140;-69
2023/12/16 05:13:42;;;;;;;8.02;4.80;;;;;;;;;;5039077;28;20040;-67
2023/12/16 05:16:08;;;;;;;9.15;5.18;;;;;;;;;;5038521;28;21139;-68
2023/12/16 05:18:33;;;;;;;5.78;4.20;;;;;;;;;;5039596;28;20044;-67
2023/12/16 05:20:58;;;;;;;10.23;4.93;;;;;;;;;;5037796;28;20106;-68
2023/12/16 05:23:24;;;;;;;10.38;5.25;;;;;;;;;;5039497;28;20048;-68
2023/12/16 05:25:49;;;;;;;7.78;4.80;;;;;;;;;;5038610;28;20118;-67
2023/12/16 05:28:15;;;;;;;7.38;4.82;;;;;;;;;;5038340;28;20136;-69
2023/12/16 05:30:40;;;;;;;8.15;4.75;;;;;;;;;;5039582;28;20174;-67
2023/12/16 05:33:05;;;;;;;8.85;4.57;;;;;;;;;;5038229;28;20506;-68
2023/12/16 05:35:31;;;;;;;5.80;4.65;;;;;;;;;;5038513;28;20048;-68
2023/12/16 05:37:57;;;;;;;7.10;4.35;;;;;;;;;;5038166;28;20550;-69
2023/12/16 05:40:22;;;;;;;6.80;4.57;;;;;;;;;;5035461;28;20037;-68
2023/12/16 05:42:48;;;;;;;7.25;5.03;;;;;;;;;;5035884;28;20132;-68
2023/12/16 05:45:13;;;;;;;7.45;4.47;;;;;;;;;;5033472;28;20041;-69
2023/12/16 05:47:39;;;;;;;7.72;5.05;;;;;;;;;;5035020;28;20076;-68
2023/12/16 05:50:05;;;;;;;6.93;4.75;;;;;;;;;;5037019;28;20047;-67
2023/12/16 05:52:31;;;;;;;12.13;4.88;;;;;;;;;;5037269;28;20488;-68
2023/12/16 05:54:57;;;;;;;6.90;4.22;;;;;;;;;;5037809;28;20049;-68
2023/12/16 05:57:22;;;;;;;7.90;5.00;;;;;;;;;;5037657;28;20080;-69
2023/12/16 05:59:48;;;;;;;10.13;4.47;;;;;;;;;;5037528;28;20509;-69
2023/12/16 06:02:13;;;;;;;6.47;3.90;;;;;;;;;;5037988;28;20077;-68
2023/12/16 06:04:38;;;;;;;8.82;5.18;;;;;;;;;;5037218;28;20041;-69
2023/12/16 06:07:04;;;;;;;7.03;4.22;;;;;;;;;;5036031;28;20479;-70
2023/12/16 06:09:29;;;;;;;11.55;5.05;;;;;;;;;;5036329;28;20048;-68
2023/12/16 06:11:57;;;;;;;10.85;5.22;;;;;;;;;;5033801;28;20444;-69
2023/12/16 06:14:23;;;;;;;9.00;4.80;;;;;;;;;;5035555;28;20045;-68
2023/12/16 06:16:48;;;;;;;6.55;4.82;;;;;;;;;;5035522;28;20049;-69
2023/12/16 06:19:14;;;;;;;12.13;5.40;;;;;;;;;;5035757;28;20099;-68
2023/12/16 06:21:39;;;;;;;6.97;4.68;;;;;;;;;;5035022;28;20040;-68
2023/12/16 06:24:05;;;;;;;8.63;5.35;;;;;;;;;;5036510;28;20141;-68
2023/12/16 06:26:31;;;;;;;6.65;5.30;;;;;;;;;;5037589;28;20053;-68
2023/12/16 06:28:56;;;;;;;6.63;4.53;;;;;;;;;;5037815;28;20135;-68
2023/12/16 06:31:22;;;;;;;7.88;5.22;;;;;;;;;;5036947;28;20041;-68
2023/12/16 06:33:47;;;;;;;9.48;5.88;;;;;;;;;;5034578;28;20056;-70
2023/12/16 06:36:12;;;;;;;9.80;5.47;;;;;;;;;;5036127;28;20128;-68
2023/12/16 06:38:38;;;;;;;9.75;5.85;;;;;;;;;;5037924;28;20052;-68
2023/12/16 06:41:04;;;;;;;8.18;5.05;;;;;;;;;;5037292;28;20182;-69
2023/12/16 06:43:30;;;;;;;11.82;6.45;;;;;;;;;;5036235;28;20048;-69
2023/12/16 06:45:55;;;;;;;9.18;6.05;;;;;;;;;;5037471;28;20045;-69
2023/12/16 06:48:22;;;;;;;9.40;5.70;;;;;;;;;;5037212;28;20041;-68
2023/12/16 06:50:49;;;;;;;10.07;6.15;;;;;;;;;;5038010;28;20179;-69
2023/12/16 06:53:15;;;;;;;9.98;6.15;;;;;;;;;;5037135;28;20040;-68
2023/12/16 06:55:40;;;;;;;10.63;6.43;;;;;;;;;;5036395;28;20743;-69
2023/12/16 06:58:05;;;;;;;12.98;6.05;;;;;;;;;;5031999;28;20459;-70
2023/12/16 07:00:31;;;;;;;9.15;5.95;;;;;;;;;;5035623;28;20033;-68
2023/12/16 07:02:56;;;;;;;10.95;5.22;;;;;;;;;;5032720;28;20052;-70
2023/12/16 07:05:22;;;;;;;8.30;4.80;;;;;;;;;;5034272;28;20052;-68
2023/12/16 07:07:47;;;;;;;6.70;4.55;;;;;;;;;;5034149;28;20462;-70
2023/12/16 07:10:13;;;;;;;9.88;5.57;;;;;;;;;;5032409;28;20055;-69
2023/12/16 07:12:38;;;;;;;7.75;5.03;;;;;;;;;;5034674;28;20118;-68
2023/12/16 07:15:04;;;;;;;7.88;4.55;;;;;;;;;;5034995;28;20048;-70
2023/12/16 07:17:30;;;;;;;9.48;5.88;;;;;;;;;;5034619;28;20068;-68
2023/12/16 07:19:56;;;;;;;11.50;4.18;;;;;;;;;;5035318;28;20047;-69
2023/12/16 07:22:21;;;;;;;8.20;5.45;;;;;;;;;;5035249;28;20036;-69
2023/12/16 07:24:47;;;;;;;8.40;5.45;;;;;;;;;;5034106;28;20107;-69
2023/12/16 07:27:12;;;;;;;12.32;6.47;;;;;;;;;;5033603;28;20045;-68
2023/12/16 07:29:37;;;;;;;8.05;4.97;;;;;;;;;;5034321;28;20496;-69
2023/12/16 07:32:03;;;;;;;10.70;6.05;;;;;;;;;;5032452;28;20036;-68
2023/12/16 07:34:29;;;;;;;9.25;5.80;;;;;;;;;;5033117;28;20041;-71
2023/12/16 07:36:54;;;;;;;7.65;4.78;;;;;;;;;;5034596;28;20505;-68
2023/12/16 07:39:24;;;;;;;6.13;4.65;;;;;;;;;;5031928;28;20045;-70
2023/12/16 07:41:49;;;;;;;7.95;4.55;;;;;;;;;;5033270;28;20060;-68
2023/12/16 07:44:14;;;;;;;7.15;4.47;;;;;;;;;;5032422;28;20041;-69
2023/12/16 07:46:40;;;;;;;7.95;5.10;;;;;;;;;;5034015;28;20438;-69
2023/12/16 07:49:06;;;;;;;10.40;5.63;;;;;;;;;;5034617;28;20092;-68
2023/12/16 07:51:32;;;;;;;12.63;6.22;;;;;;;;;;5032648;28;20037;-69
2023/12/16 07:53:57;;;;;;;11.50;6.68;;;;;;;;;;5035459;28;20053;-68
2023/12/16 07:56:24;;;;;;;16.38;7.82;;;;;;;;;;5033789;28;20067;-70
2023/12/16 07:58:50;;;;;;;11.98;7.28;;;;;;;;;;5035615;28;20503;-70
2023/12/16 08:01:17;;;;;;;13.55;6.55;;;;;;;;;;5032982;28;20044;-70
2023/12/16 08:03:43;;;;;;;9.88;5.72;;;;;;;;;;5034671;28;20048;-70
2023/12/16 08:06:09;;;;;;;9.55;6.30;;;;;;;;;;5034912;28;20044;-68
2023/12/16 08:08:35;;;;;;;12.27;6.47;;;;;;;;;;5034481;28;20082;-71
2023/12/16 08:11:01;;;;;;;10.00;6.18;;;;;;;;;;5036021;28;20041;-69
2023/12/16 08:13:27;;;;;;;9.88;5.57;;;;;;;;;;5032184;28;20051;-70
2023/12/16 08:15:52;;;;;;;10.90;5.93;;;;;;;;;;5033141;28;20055;-70
2023/12/16 08:18:18;;;;;;;11.88;5.78;;;;;;;;;;5035258;28;20045;-70
2023/12/16 08:20:43;;;;;;;10.88;6.13;;;;;;;;;;5035091;28;20658;-69
2023/12/16 08:23:09;;;;;;;11.38;6.32;;;;;;;;;;5034259;28;20053;-69
2023/12/16 08:25:37;;;;;;;9.77;6.38;;;;;;;;;;5035114;28;20045;-70
2023/12/16 08:28:02;;;;;;;10.32;6.82;;;;;;;;;;5036291;28;20052;-68
2023/12/16 08:30:28;;;;;;;11.30;5.70;;;;;;;;;;5034884;28;20045;-72
2023/12/16 08:32:53;;;;;;;8.55;5.40;;;;;;;;;;5028570;28;20087;-71
2023/12/16 08:35:18;;;;;;;12.35;6.38;;;;;;;;;;5031986;28;20136;-68
2023/12/16 08:37:44;;;;;;;13.32;6.30;;;;;;;;;;5032803;28;20041;-70
2023/12/16 08:40:10;;;;;;;10.15;6.25;;;;;;;;;;5032564;28;20033;-68
2023/12/16 08:42:36;;;;;;;11.25;5.93;;;;;;;;;;5032351;28;20662;-71
2023/12/16 08:45:02;;;;;;;9.07;5.90;;;;;;;;;;5035601;28;20041;-69
2023/12/16 08:47:27;;;;;;;9.43;6.35;;;;;;;;;;5036427;28;20049;-71
2023/12/16 08:49:53;;;;;;;10.98;5.90;;;;;;;;;;5037232;28;20408;-70
2023/12/16 08:52:18;;;;;;;12.98;6.43;;;;;;;;;;5036965;28;20044;-70
2023/12/16 08:54:44;;;;;;;9.18;5.47;;;;;;;;;;5036539;28;20044;-69
2023/12/16 08:57:10;;;;;;;9.95;5.60;;;;;;;;;;5036800;28;20040;-71
2023/12/16 08:59:35;;;;;;;7.20;4.80;;;;;;;;;;5036286;28;20868;-69
2023/12/16 09:02:02;;;;;;;10.75;5.78;;;;;;;;;;5037991;28;20060;-72
2023/12/16 09:04:28;;;;;;;8.35;5.47;;;;;;;;;;5037736;28;20068;-69
2023/12/16 09:06:54;;;;;;;8.68;5.40;;;;;;;;;;5038576;28;20171;-69
2023/12/16 09:09:20;;;;;;;8.02;4.85;;;;;;;;;;5039021;28;20077;-71
2023/12/16 09:11:45;;;;;;;8.38;5.30;;;;;;;;;;5030813;28;20168;-68
2023/12/16 09:14:13;;;;;;;8.57;5.30;;;;;;;;;;5021130;28;20061;-71
2023/12/16 09:16:39;;;;;;;9.50;5.80;;;;;;;;;;5036531;28;20559;-67
2023/12/16 09:19:07;;;;;;;8.13;5.28;;;;;;;;;;5036133;28;20055;-67
2023/12/16 09:21:32;;;;;;;6.22;4.18;;;;;;;;;;5035658;28;20163;-66
2023/12/16 09:23:58;;;;;;;9.20;5.68;;;;;;;;;;5035282;28;20058;-68
2023/12/16 09:26:24;;;;;;;6.50;4.70;;;;;;;;;;5036071;28;20052;-69
2023/12/16 09:28:49;;;;;;;6.25;4.18;;;;;;;;;;5036431;28;20045;-69
2023/12/16 09:31:16;;;;;;;7.13;4.32;;;;;;;;;;5037434;28;20040;-70
2023/12/16 09:33:41;;;;;;;7.20;4.03;;;;;;;;;;5037337;28;20041;-69
2023/12/16 09:36:12;;;;;;;6.78;4.85;;;;;;;;;;5036817;28;20565;-68
2023/12/16 09:38:37;;;;;;;8.15;4.55;;;;;;;;;;5028812;28;20134;-69
2023/12/16 09:41:03;;;;;;;9.82;5.00;;;;;;;;;;5034275;28;20464;-68
2023/12/16 09:43:33;;;;;;;10.07;5.05;;;;;;;;;;5035587;28;20045;-68
2023/12/16 09:45:59;;;;;;;7.05;4.75;;;;;;;;;;5049681;28;20083;-67
2023/12/16 09:48:24;;;;;;;7.90;5.65;;;;;;;;;;5018555;28;20049;-71
2023/12/16 09:50:50;;;;;;;7.15;4.93;;;;;;;;;;5018121;28;20147;-66
2023/12/16 09:53:15;;;;;;;7.88;5.57;;;;;;;;;;5019337;28;20049;-71
2023/12/16 09:55:44;;;;;;;12.45;5.38;;;;;;;;;;5016451;28;20049;-68
2023/12/16 09:58:15;;;;;;;9.68;5.03;;;;;;;;;;5020455;28;20052;-73
2023/12/16 10:00:45;;;;;;;8.40;5.18;;;;;;;;;;5018745;28;20045;-66
2023/12/16 10:03:14;;;;;;;7.80;4.88;;;;;;;;;;5021100;28;20049;-72
2023/12/16 10:05:40;;;;;;;7.30;5.00;;;;;;;;;;5017905;28;20049;-68
2023/12/16 10:08:06;;;;;;;8.07;4.95;;;;;;;;;;5020100;28;20424;-69
2023/12/16 10:10:31;;;;;;;7.55;5.13;;;;;;;;;;5016984;28;20037;-72
2023/12/16 10:13:01;;;;;;;7.25;4.90;;;;;;;;;;5019270;28;20048;-70
2023/12/16 10:15:32;;;;;;;7.57;4.93;;;;;;;;;;5022648;28;20298;-72
2023/12/16 10:18:02;;;;;;;8.70;5.18;;;;;;;;;;5017454;28;20057;-69
2023/12/16 10:20:28;;;;;;;9.60;5.57;;;;;;;;;;5030264;28;20048;-73
2023/12/16 10:22:53;;;;;;;7.13;5.07;;;;;;;;;;5041825;28;20047;-67
2023/12/16 10:25:19;;;;;;;8.73;5.88;;;;;;;;;;5042533;28;20044;-69
2023/12/16 10:27:45;;;;;;;8.82;5.65;;;;;;;;;;5044058;28;20044;-71
2023/12/16 10:30:11;;;;;;;7.57;4.70;;;;;;;;;;5052683;28;20126;-69
2023/12/16 10:32:40;;;;;;;8.32;5.13;;;;;;;;;;5044643;28;20052;-68
2023/12/16 10:35:07;;;;;;;6.90;4.72;;;;;;;;;;5048132;28;20145;-71
2023/12/16 10:37:32;;;;;;;6.25;4.32;;;;;;;;;;5051543;28;20072;-70
2023/12/16 10:39:58;;;;;;;6.05;4.25;;;;;;;;;;5042464;28;20044;-70
2023/12/16 10:42:24;;;;;;;5.40;4.38;;;;;;;;;;5054748;28;20059;-70
2023/12/16 10:44:55;;;;;;;7.30;4.75;;;;;;;;;;5055118;28;20152;-67
2023/12/16 10:47:26;;;;;;;6.22;4.22;;;;;;;;;;5052361;28;20132;-68
2023/12/16 10:49:56;;;;;;;6.07;4.15;;;;;;;;;;5042699;28;20101;-67
2023/12/16 10:52:22;;;;;;;5.25;4.03;;;;;;;;;;5046018;28;20566;-68
2023/12/16 10:54:59;;;;;;;6.28;3.95;;;;;;;;;;5049291;28;20044;-68
2023/12/16 10:57:31;;;;;;;5.15;3.60;;;;;;;;;;5043037;28;20040;-69
2023/12/16 11:00:05;;;;;;;6.00;4.43;;;;;;;;;;5035963;28;20133;-69
2023/12/16 11:02:31;;;;;;;7.03;4.75;;;;;;;;;;5034466;28;20360;-69
2023/12/16 11:05:07;;;;;;;8.27;5.05;;;;;;;;;;5035655;28;20041;-69
2023/12/16 11:07:38;;;;;;;6.82;5.13;;;;;;;;;;5033298;28;20064;-69
2023/12/16 11:10:05;;;;;;;6.70;5.10;;;;;;;;;;5034486;28;20130;-69
2023/12/16 11:12:36;;;;;;;6.13;4.80;;;;;;;;;;5034830;28;20502;-69
2023/12/16 11:15:04;;;;;;;5.78;4.00;;;;;;;;;;5035471;28;20048;-69
2023/12/16 11:17:35;;;;;;;5.60;4.32;;;;;;;;;;5034678;28;20059;-69
2023/12/16 11:20:16;;;;;;;4.68;3.58;;;;;;;;;;5034908;28;20815;-69
2023/12/16 11:22:51;;;;;;;3.45;3.13;;;;;;;;;;5035461;28;20049;-69
2023/12/16 11:25:21;;;;;;;2.80;2.38;;;;;;;;;;5034427;28;20132;-69
2023/12/16 11:27:47;;;;;;;2.45;2.15;;;;;;;;;;5035373;28;20041;-69
2023/12/16 11:30:14;;;;;;;4.03;3.00;;;;;;;;;;5034028;28;20045;-69
2023/12/16 11:32:40;;;;;;;2.63;2.30;;;;;;;;;;5034656;28;20072;-69
2023/12/16 11:35:05;;;;;;;3.10;2.70;;;;;;;;;;5035226;28;20408;-70
2023/12/16 11:37:42;;;;;;;3.25;2.88;;;;;;;;;;5035305;28;20045;-69
2023/12/16 11:40:41;;;;;;;4.10;3.20;;;;;;;;;;5049090;28;20142;-69
2023/12/16 11:43:07;;;;;;;4.15;3.30;;;;;;;;;;5042588;28;20131;-70
2023/12/16 11:45:42;;;;;;;4.15;2.47;;;;;;;;;;5044315;28;20128;-69
2023/12/16 11:48:14;;;;;;;3.15;2.63;;;;;;;;;;5046237;28;20103;-69
2023/12/16 11:50:41;;;;;;;4.53;3.05;;;;;;;;;;5043885;28;20055;-69
2023/12/16 11:53:17;;;;;;;4.07;2.92;;;;;;;;;;5050701;28;20121;-69
2023/12/16 11:55:43;;;;;;;4.78;3.70;;;;;;;;;;5021105;28;20053;-70
2023/12/16 11:58:08;;;;;;;5.28;4.05;;;;;;;;;;5026003;28;20049;-69
2023/12/16 12:00:34;;;;;;;5.32;4.35;;;;;;;;;;5034736;28;20942;-69
2023/12/16 12:03:02;;;;;;;6.60;4.75;;;;;;;;;;5036377;28;20045;-70
2023/12/16 12:05:29;;;;;;;6.20;4.50;;;;;;;;;;5040114;28;20072;-70
2023/12/16 12:07:55;;;;;;;7.53;4.28;;;;;;;;;;5048193;28;20048;-70
2023/12/16 12:10:21;;;;;;;7.65;4.20;;;;;;;;;;5046248;28;20052;-70
2023/12/16 12:12:47;;;;;;;6.28;4.32;;;;;;;;;;5037153;28;20183;-70
2023/12/16 12:15:13;;;;;;;5.78;4.38;;;;;;;;;;5047784;28;20075;-70
2023/12/16 12:17:38;;;;;;;5.07;4.25;;;;;;;;;;5039636;28;20072;-70
2023/12/16 12:20:05;;;;;;;7.22;4.68;;;;;;;;;;5050645;28;20655;-70
2023/12/16 12:22:31;;;;;;;7.15;4.43;;;;;;;;;;5041288;28;20083;-70
2023/12/16 12:24:57;;;;;;;5.47;4.38;;;;;;;;;;5048298;28;20049;-70
2023/12/16 12:27:23;;;;;;;5.65;4.28;;;;;;;;;;5045998;28;20111;-70
2023/12/16 12:29:52;;;;;;;5.45;3.97;;;;;;;;;;5056262;28;20040;-70
2023/12/16 12:32:18;;;;;;;5.80;4.68;;;;;;;;;;5055198;28;20048;-70
2023/12/16 12:34:44;;;;;;;7.00;4.07;;;;;;;;;;5043306;28;20045;-70
2023/12/16 12:37:09;;;;;;;4.70;3.78;;;;;;;;;;5048317;28;20132;-70
2023/12/16 12:39:35;;;;;;;6.50;3.90;;;;;;;;;;5039862;28;20045;-69
2023/12/16 12:42:01;;;;;;;5.82;4.28;;;;;;;;;;5040314;28;20119;-69
2023/12/16 12:44:27;;;;;;;6.55;4.35;;;;;;;;;;5040968;28;20103;-70
2023/12/16 12:46:53;;;;;;;7.70;4.60;;;;;;;;;;5037625;28;20037;-70
2023/12/16 12:49:19;;;;;;;6.30;4.57;;;;;;;;;;5022981;28;20063;-70
2023/12/16 12:51:51;;;;;;;5.07;3.85;;;;;;;;;;5019306;28;20049;-70
2023/12/16 12:54:18;;;;;;;7.20;4.60;;;;;;;;;;5022881;28;20049;-70
2023/12/16 12:56:44;;;;;;;6.35;4.35;;;;;;;;;;5021095;28;20049;-70
2023/12/16 12:59:09;;;;;;;5.78;4.10;;;;;;;;;;5035035;28;20533;-70
2023/12/16 13:01:35;;;;;;;6.07;4.35;;;;;;;;;;5038594;28;20044;-70
2023/12/16 13:04:00;;;;;;;5.43;3.90;;;;;;;;;;5040964;28;20048;-70
2023/12/16 13:06:26;;;;;;;8.25;4.72;;;;;;;;;;5040351;28;20531;-70
2023/12/16 13:08:51;;;;;;;8.70;5.05;;;;;;;;;;5034898;28;20073;-69
2023/12/16 13:11:17;;;;;;;12.40;3.83;;;;;;;;;;5037185;28;20063;-70
2023/12/16 13:13:42;;;;;;;5.00;3.90;;;;;;;;;;5040556;28;20055;-70
2023/12/16 13:16:09;;;;;;;8.02;3.75;;;;;;;;;;5036785;28;20045;-69
2023/12/16 13:18:40;;;;;;;4.25;3.47;;;;;;;;;;5039659;28;21186;-69
2023/12/16 13:21:06;;;;;;;7.33;4.17;;;;;;;;;;5039767;28;20083;-70
2023/12/16 13:23:31;;;;;;;5.30;3.72;;;;;;;;;;5036682;28;20065;-69
2023/12/16 13:25:57;;;;;;;6.00;3.72;;;;;;;;;;5036405;28;20079;-70
2023/12/16 13:28:23;;;;;;;6.47;3.00;;;;;;;;;;5020679;28;20068;-70
2023/12/16 13:30:51;;;;;;;5.90;3.47;;;;;;;;;;5020130;28;20714;-70
2023/12/16 13:33:16;;;;;;;4.07;2.85;;;;;;;;;;5033612;28;20051;-70
2023/12/16 13:35:45;;;;;;;3.45;2.88;;;;;;;;;;5038293;28;20037;-70
2023/12/16 13:38:11;;;;;;;4.57;3.45;;;;;;;;;;5044456;28;20055;-70
2023/12/16 13:40:37;;;;;;;4.93;3.55;;;;;;;;;;5058946;28;20048;-70
2023/12/16 13:43:03;;;;;;;7.95;3.55;;;;;;;;;;5058258;28;20052;-69
2023/12/16 13:45:28;;;;;;;4.65;3.90;;;;;;;;;;5057962;28;20155;-70
2023/12/16 13:47:54;;;;;;;4.70;3.58;;;;;;;;;;5058906;28;20143;-70
2023/12/16 13:50:20;;;;;;;6.32;4.00;;;;;;;;;;5059154;28;20064;-70
2023/12/16 13:52:49;;;;;;;4.75;3.75;;;;;;;;;;5058326;28;21153;-70
2023/12/16 13:55:16;;;;;;;7.22;3.90;;;;;;;;;;5059103;28;20626;-70
2023/12/16 13:57:42;;;;;;;4.80;3.55;;;;;;;;;;5056592;28;20495;-70
2023/12/16 14:00:08;;;;;;;6.97;3.40;;;;;;;;;;5058657;28;20067;-70
2023/12/16 14:02:33;;;;;;;5.80;3.33;;;;;;;;;;5058253;28;21133;-70
2023/12/16 14:05:01;;;;;;;6.15;3.60;;;;;;;;;;5057696;28;20110;-70
2023/12/16 14:07:26;;;;;;;4.22;2.97;;;;;;;;;;5059193;28;20506;-70
2023/12/16 14:09:52;;;;;;;4.35;2.50;;;;;;;;;;5057918;28;20059;-72
2023/12/16 14:12:17;;;;;;;3.03;2.42;;;;;;;;;;5057792;28;20058;-70
2023/12/16 14:14:43;;;;;;;3.47;2.67;;;;;;;;;;5038268;28;20037;-70
2023/12/16 14:17:08;;;;;;;3.38;2.97;;;;;;;;;;5020122;28;20709;-70
2023/12/16 14:19:34;;;;;;;3.85;2.90;;;;;;;;;;5018571;28;20040;-70
2023/12/16 14:21:59;;;;;;;3.17;2.85;;;;;;;;;;5020108;28;20049;-70
2023/12/16 14:24:24;;;;;;;3.50;2.90;;;;;;;;;;5019917;28;20156;-70
2023/12/16 14:26:50;;;;;;;3.33;2.65;;;;;;;;;;5018888;28;20049;-70
2023/12/16 14:29:15;;;;;;;3.97;3.20;;;;;;;;;;5019895;28;20048;-70
2023/12/16 14:31:41;;;;;;;4.93;3.45;;;;;;;;;;5018715;28;20562;-69
2023/12/16 14:34:07;;;;;;;5.30;3.33;;;;;;;;;;5022174;28;20452;-69